Harry B. Settoon — WDE5658 — position and weather

sailwx.info

Track history (hours):
 
Tides and Currents Weather Stations Pressure Air Temp Water Temp Dewpoint Dewpoint Depression Visibility Wind Speed Wind Dir Waves Ship Positions

Harry B. Settoon

Owner: Settoon Towing, LLC, Houma, LA. More information available from US FCC via Universal Licensing System and Coast Guard Vessel Documentation Center.

Last reported at 2015-Jan-30 05:27 UTC. Time now 2015-Jan-30 06:28 UTC.
Position N 29°41' W 091°48'.

; draft 1.8 m.

Type: Tug. MMSI: 367369920.

Date/timePositionNaut miles runAvg speedWind from/ knotsBaromVisibWave heightAir tempDewpointWater temp
2015-Jan-30 05:27N 29°41' W 091°48'0 0.0
2015-Jan-30 04:33N 29°41' W 091°48'0 0.0
2015-Jan-30 03:33N 29°41' W 091°48'0 0.0
2015-Jan-30 02:32N 29°41' W 091°48'13 1.1
2015-Jan-29 14:33N 29°44' W 091°34'7 7.4
2015-Jan-29 13:33N 29°40' W 091°26'8 7.6
2015-Jan-29 12:33N 29°39' W 091°18'7 6.7
2015-Jan-29 11:34N 29°41' W 091°10'5 4.9
2015-Jan-29 10:33N 29°38' W 091°06'6 6.1
2015-Jan-29 09:33N 29°37' W 090°59'3 2.2
2015-Jan-29 08:22N 29°37' W 090°56'0 0.2
2015-Jan-29 07:28N 29°38' W 090°56'0 0.0
2015-Jan-29 06:32N 29°38' W 090°56'0 0.0
2015-Jan-29 05:05N 29°38' W 090°56'0 0.0
2015-Jan-29 04:29N 29°38' W 090°56'3 2.9
2015-Jan-29 03:33N 29°37' W 090°59'7 6.7
2015-Jan-29 02:33N 29°39' W 091°06'6 5.7
2015-Jan-29 01:33N 29°41' W 091°12'3 3.2
2015-Jan-29 00:33N 29°39' W 091°15'27 0.7
2015-Jan-27 09:29N 29°46' W 091°46'0 0.0
2015-Jan-27 08:18N 29°46' W 091°46'  
Track history (hours):
 
Tides and Currents Weather Stations Pressure Air Temp Water Temp Dewpoint Dewpoint Depression Visibility Wind Speed Wind Dir Waves Ship Positions

Harry B. Settoon

Owner: Settoon Towing, LLC, Houma, LA. More information available from US FCC via Universal Licensing System and Coast Guard Vessel Documentation Center.

Last reported at 2015-Jan-30 05:27 UTC. Time now 2015-Jan-30 06:28 UTC.
Position N 29°41' W 091°48'.

; draft 1.8 m.

Type: Tug. MMSI: 367369920.

Date/timePositionNaut miles runAvg speedWind from/ knotsBaromVisibWave heightAir tempDewpointWater temp
2015-Jan-30 05:27N 29°41' W 091°48'0 0.0
2015-Jan-30 04:33N 29°41' W 091°48'0 0.0
2015-Jan-30 03:33N 29°41' W 091°48'0 0.0
2015-Jan-30 02:32N 29°41' W 091°48'13 1.1
2015-Jan-29 14:33N 29°44' W 091°34'7 7.4
2015-Jan-29 13:33N 29°40' W 091°26'8 7.6
2015-Jan-29 12:33N 29°39' W 091°18'7 6.7
2015-Jan-29 11:34N 29°41' W 091°10'5 4.9
2015-Jan-29 10:33N 29°38' W 091°06'6 6.1
2015-Jan-29 09:33N 29°37' W 090°59'3 2.2
2015-Jan-29 08:22N 29°37' W 090°56'0 0.2
2015-Jan-29 07:28N 29°38' W 090°56'0 0.0
2015-Jan-29 06:32N 29°38' W 090°56'0 0.0
2015-Jan-29 05:05N 29°38' W 090°56'0 0.0
2015-Jan-29 04:29N 29°38' W 090°56'3 2.9
2015-Jan-29 03:33N 29°37' W 090°59'7 6.7
2015-Jan-29 02:33N 29°39' W 091°06'6 5.7
2015-Jan-29 01:33N 29°41' W 091°12'3 3.2
2015-Jan-29 00:33N 29°39' W 091°15'27 0.7
2015-Jan-27 09:29N 29°46' W 091°46'0 0.0
2015-Jan-27 08:18N 29°46' W 091°46'  

Dump ship's entire track history